Airfield :
LOGIN :

Register | Disclaimer

   EN    FR    IT 

 










Legend :    VFR   Marginal VFR   IFR   Intensive IFR   Very Intensive IFR
Visi :
Ceiling :
>= 8 km
>= 3000ft
5 to 8 km
1000 to 3000 ft
1500m to 5 km
500 to 1000 ft
800 to 1500m
200 to 500 ft
< 800m
< 200 ft
Symbols :   Thunderstorms  Fog  Heavy snow  Heavy precipitations  Wind > 20 kt
SIGMETs :     Misc.  Thunderstorms  Icing  Turbulence  Mountain Waves  Volcanic Ashes







- Airport Elevation : 370 ft


EBBE - Beauvechain AB

CURRENT METAR :
  • 171705Z AUTO 20007KT 7000 -RA FEW016/// SCT045/// BKN055/// 19/18 Q1015 WHT

EXPIRED METARs :
  • 171625Z AUTO 19009KT 9999 -RA FEW013/// SCT017/// BKN021/// 20/17 Q1015 WHT
  • 171433Z 21012KT 9999 -RA SCT011 BKN014 19/17 Q1016 GRN GRN TEMPO YLO
  • 171425Z 21011KT 9999 -RA SCT015 BKN018 19/16 Q1016 WHT WHT TEMPO GRN

TAF TAF EBBE
Valid from the 17 at 13:00 until the 17 at 22:00 UTC


171143Z 1713/1722 23012G22KT 9999 SCT015 BKN020
TEMPO 1713/1716 23015G25KT
BECMG 1715/1717 8000 -RA
TEMPO 1715/1719 4000 RA SHRA SCT015TCU BKN020
PROB30
TEMPO 1716/1719 23015G30KT 3000 TSRA SCT006 BKN015CB
BECMG 1719/1721 23007KT 9999 NSW SCT020
No reported NOTAMs for that airfield.



MET'MAP, your aeronautical weather chart ! - Copyright ORBIFLY December 2007 - Disclaimer

ORBIFLY MET'MAP TEAM :

Programming & Development : Alexandra Zaïnal
Concept & Development : Baudouin d'Aumeries
Co-Development & Prog : Marc-Olivier Méhu
Technical & hardware support : Manuel Goepfert

Contact : metmap@orbifly.com




SOURCES & CREDITS :

   NOAA